Time;durP1;ratioP1;P1;durP2;ratioP2;P2;SDS_P1;SDS_P2;PMS_P1;PMS_P2;Temp;Humidity;BMP_temperature;BMP_pressure;BME280_temperature;BME280_humidity;BME280_pressure;Samples;Min_cycle;Max_cycle;Signal;HPM_P1;HPM_P2
2021/07/21 00:01:50;;;;;;;20.70;11.73;;;;;;;14.98;87.19;100734.25;5015188;28;20478;-68
2021/07/21 00:04:17;;;;;;;18.63;11.10;;;;;;;14.95;87.89;100731.81;5015174;28;20100;-69
2021/07/21 00:06:55;;;;;;;18.42;10.80;;;;;;;14.92;87.93;100726.63;5015231;28;20490;-69
2021/07/21 00:09:22;;;;;;;19.67;11.60;;;;;;;14.89;87.59;100727.72;5046941;28;20086;-69
2021/07/21 00:14:38;;;;;;;16.08;10.38;;;;;;;14.86;87.53;100724.41;5015288;28;20459;-69
2021/07/21 00:17:16;;;;;;;17.33;10.60;;;;;;;14.83;87.89;100725.47;5015364;28;20046;-69
2021/07/21 00:22:29;;;;;;;16.60;10.30;;;;;;;14.83;87.79;100720.09;4976342;28;20076;-69
2021/07/21 00:24:55;;;;;;;16.65;9.77;;;;;;;14.84;87.52;100723.63;4976063;28;20054;-69
2021/07/21 00:27:23;;;;;;;16.42;10.27;;;;;;;14.80;87.60;100721.16;4975975;28;20097;-70
2021/07/21 00:29:52;;;;;;;17.98;10.35;;;;;;;14.79;87.79;100722.13;4976071;28;20050;-69
2021/07/21 00:32:19;;;;;;;21.25;11.45;;;;;;;14.80;87.05;100707.72;4975847;28;20047;-72
2021/07/21 00:34:46;;;;;;;17.25;10.93;;;;;;;14.87;86.54;100707.31;4975946;28;20059;-68
2021/07/21 00:37:12;;;;;;;21.98;11.45;;;;;;;14.82;87.58;100701.38;4978735;28;20050;-68
2021/07/21 00:39:39;;;;;;;18.40;10.68;;;;;;;14.77;87.56;100699.88;4979726;28;20047;-69
2021/07/21 00:42:06;;;;;;;20.80;10.32;;;;;;;14.72;88.78;100701.13;4979683;28;20122;-70
2021/07/21 00:44:32;;;;;;;17.52;10.85;;;;;;;14.77;87.85;100701.72;4978694;28;20055;-70
2021/07/21 00:47:00;;;;;;;19.60;11.07;;;;;;;14.82;87.47;100698.69;4979423;28;20428;-70
2021/07/21 00:49:26;;;;;;;19.33;10.88;;;;;;;14.78;86.42;100688.16;4979498;28;20051;-69
2021/07/21 00:51:53;;;;;;;17.60;11.15;;;;;;;14.77;87.17;100681.06;5010238;28;20098;-68
2021/07/21 00:54:21;;;;;;;19.63;11.07;;;;;;;14.83;86.15;100692.34;4979471;28;20133;-69
2021/07/21 00:56:48;;;;;;;18.60;10.38;;;;;;;14.83;86.71;100697.72;4979226;28;20436;-70
2021/07/21 00:59:17;;;;;;;16.02;10.38;;;;;;;14.76;86.80;100681.19;4979264;28;20119;-68
2021/07/21 01:01:43;;;;;;;23.65;10.90;;;;;;;14.78;87.42;100688.16;4994239;28;20046;-69
2021/07/21 01:04:10;;;;;;;16.30;10.38;;;;;;;14.79;86.41;100687.22;4979341;28;20054;-68
2021/07/21 01:06:37;;;;;;;18.33;10.98;;;;;;;14.79;86.91;100689.03;4994462;28;20101;-69
2021/07/21 01:09:06;;;;;;;19.27;10.98;;;;;;;14.76;88.13;100694.63;4979139;28;20364;-68
2021/07/21 01:11:52;;;;;;;15.93;10.68;;;;;;;14.76;87.14;100692.78;4978980;28;20098;-67
2021/07/21 01:14:27;;;;;;;18.08;10.20;;;;;;;14.74;85.71;100686.66;4979350;28;20195;-69
2021/07/21 01:17:01;;;;;;;17.52;11.02;;;;;;;14.71;86.96;100691.38;4994310;28;20053;-68
2021/07/21 01:19:34;;;;;;;20.30;10.13;;;;;;;14.73;86.93;100694.78;4979243;28;20146;-68
2021/07/21 01:22:03;;;;;;;17.42;11.13;;;;;;;14.66;85.17;100672.88;5013032;28;20101;-69
2021/07/21 01:24:44;;;;;;;16.90;10.77;;;;;;;14.70;86.17;100693.19;5018195;28;20053;-69
2021/07/21 01:27:30;;;;;;;19.98;10.90;;;;;;;14.67;87.12;100698.78;5017981;28;20341;-68
2021/07/21 01:30:04;;;;;;;16.60;10.85;;;;;;;14.67;86.10;100694.25;5049732;28;20490;-69
2021/07/21 01:32:32;;;;;;;20.25;11.68;;;;;;;14.62;86.74;100699.09;5017779;28;20045;-68
2021/07/21 01:35:07;;;;;;;20.85;10.50;;;;;;;14.58;88.52;100702.09;5018154;28;20103;-68
2021/07/21 01:37:39;;;;;;;19.20;11.32;;;;;;;14.49;88.00;100701.75;5049691;28;20050;-69
2021/07/21 01:40:11;;;;;;;19.77;11.15;;;;;;;14.50;87.59;100702.63;5017846;28;20069;-68
2021/07/21 01:42:40;;;;;;;20.38;10.73;;;;;;;14.47;88.53;100701.03;5017461;28;20489;-69
2021/07/21 01:45:08;;;;;;;15.57;10.95;;;;;;;14.41;88.59;100698.75;5017624;28;20088;-68
2021/07/21 01:47:37;;;;;;;22.23;11.55;;;;;;;14.35;89.21;100697.38;5017328;28;20325;-70
2021/07/21 01:50:06;;;;;;;19.67;11.43;;;;;;;14.31;93.93;100697.66;5017364;28;20406;-69
2021/07/21 01:52:33;;;;;;;19.67;11.43;;;;;;;14.21;91.40;100705.47;5016902;28;20351;-68
2021/07/21 01:55:02;;;;;;;19.75;11.95;;;;;;;14.25;90.90;100713.25;5017208;28;20054;-68
2021/07/21 01:57:32;;;;;;;18.17;10.18;;;;;;;14.17;91.54;100707.50;5017403;28;20050;-69
2021/07/21 02:00:08;;;;;;;22.73;11.32;;;;;;;14.12;91.79;100712.34;5017360;28;20115;-68
2021/07/21 02:02:35;;;;;;;19.23;11.20;;;;;;;14.12;90.60;100720.41;5017097;28;20042;-69
2021/07/21 02:05:04;;;;;;;17.98;10.75;;;;;;;14.07;91.66;100725.22;5017113;28;20100;-68
2021/07/21 02:07:33;;;;;;;17.77;10.68;;;;;;;14.00;91.13;100722.06;5017039;28;20111;-69
2021/07/21 02:10:00;;;;;;;19.25;11.05;;;;;;;13.98;90.84;100719.50;5048644;28;20497;-68
2021/07/21 02:12:27;;;;;;;20.67;10.98;;;;;;;14.02;90.27;100716.59;5016971;28;20053;-68
2021/07/21 02:14:54;;;;;;;19.45;10.90;;;;;;;13.98;90.76;100719.50;5016886;28;20498;-69
2021/07/21 02:17:23;;;;;;;18.92;11.32;;;;;;;13.98;90.97;100716.81;5016710;28;20107;-69
2021/07/21 02:19:49;;;;;;;16.23;10.90;;;;;;;13.94;91.47;100714.44;5016757;28;20050;-69
2021/07/21 02:22:18;;;;;;;18.70;12.15;;;;;;;13.86;91.87;100706.88;5016662;28;20108;-67
2021/07/21 02:24:46;;;;;;;21.17;11.50;;;;;;;13.81;93.14;100706.31;5016635;28;20049;-68
2021/07/21 02:27:14;;;;;;;19.35;11.80;;;;;;;13.80;95.13;100715.34;5016830;28;20045;-68
2021/07/21 02:29:41;;;;;;;22.08;11.60;;;;;;;13.81;93.24;100706.31;5016496;28;20046;-68
2021/07/21 02:32:20;;;;;;;19.88;12.10;;;;;;;13.75;92.99;100701.38;5016592;28;20084;-69
2021/07/21 02:34:46;;;;;;;22.35;12.13;;;;;;;13.84;92.20;100703.47;5015671;28;20050;-69
2021/07/21 02:37:18;;;;;;;22.38;12.18;;;;;;;13.80;95.88;100699.25;5016671;28;20387;-67
2021/07/21 02:39:47;;;;;;;19.42;11.32;;;;;;;13.67;94.25;100697.38;5016612;28;20097;-70
2021/07/21 02:42:15;;;;;;;18.63;11.27;;;;;;;13.66;94.67;100694.78;5016405;28;20092;-70
2021/07/21 02:44:44;;;;;;;19.00;10.98;;;;;;;13.68;93.31;100693.72;5016438;28;20061;-69
2021/07/21 02:47:11;;;;;;;19.48;11.45;;;;;;;13.73;92.91;100703.28;5016252;28;20045;-70
2021/07/21 02:49:39;;;;;;;26.25;12.55;;;;;;;13.67;94.11;100700.03;5016092;28;20057;-69
2021/07/21 02:52:41;;;;;;;24.50;11.43;;;;;;;13.57;94.14;100704.31;5016189;28;20058;-68
2021/07/21 02:55:13;;;;;;;25.05;12.25;;;;;;;13.53;94.61;100709.00;5019499;28;20501;-68
2021/07/21 02:57:43;;;;;;;18.20;11.45;;;;;;;13.44;93.68;100714.91;5016406;28;20049;-70
2021/07/21 03:00:18;;;;;;;25.98;11.32;;;;;;;13.47;93.85;100713.91;5015678;28;20060;-68
2021/07/21 03:02:48;;;;;;;18.27;11.57;;;;;;;13.44;94.66;100723.84;5016393;28;20046;-70
2021/07/21 03:05:19;;;;;;;19.27;11.18;;;;;;;13.43;94.67;100730.16;5015264;28;20061;-69
2021/07/21 03:07:52;;;;;;;18.15;10.90;;;;;;;13.47;94.70;100724.63;5016128;28;20053;-70
2021/07/21 03:10:19;;;;;;;22.60;11.90;;;;;;;13.50;93.68;100724.44;5015918;28;20057;-68
2021/07/21 03:13:06;;;;;;;23.75;12.65;;;;;;;13.40;94.27;100722.28;5016066;28;20054;-70
2021/07/21 03:15:38;;;;;;;19.10;12.13;;;;;;;13.42;94.36;100732.94;5015944;28;20432;-69
2021/07/21 03:18:09;;;;;;;18.33;12.10;;;;;;;13.31;94.47;100728.25;5016178;28;20045;-69
2021/07/21 03:20:38;;;;;;;20.40;11.50;;;;;;;13.30;95.63;100721.19;5015751;28;20501;-69
2021/07/21 03:23:06;;;;;;;21.65;12.13;;;;;;;13.32;95.85;100732.66;5014645;28;20046;-69
2021/07/21 03:25:33;;;;;;;22.10;12.63;;;;;;;13.36;94.81;100739.56;5015875;28;20050;-69
2021/07/21 03:28:02;;;;;;;20.88;13.13;;;;;;;13.34;95.85;100735.25;5015657;28;20451;-69
2021/07/21 03:30:29;;;;;;;17.92;11.73;;;;;;;13.35;94.24;100735.13;5015878;28;20054;-70
2021/07/21 03:32:56;;;;;;;17.95;10.88;;;;;;;13.38;93.87;100729.59;5015618;28;20100;-70
2021/07/21 03:35:26;;;;;;;20.60;11.52;;;;;;;13.37;93.46;100725.19;5015422;28;20108;-67
2021/07/21 03:37:53;;;;;;;20.83;11.55;;;;;;;13.22;94.56;100727.00;5015482;28;20081;-69
2021/07/21 03:40:23;;;;;;;26.48;12.40;;;;;;;13.33;93.38;100734.38;5047198;28;20423;-70
2021/07/21 03:42:53;;;;;;;22.73;11.65;;;;;;;13.24;94.28;100733.13;5015604;28;20100;-68
2021/07/21 03:45:24;;;;;;;24.60;11.60;;;;;;;13.14;94.46;100722.13;5015562;28;20054;-70
2021/07/21 03:47:51;;;;;;;21.65;11.98;;;;;;;13.24;94.97;100738.50;5015669;28;20112;-68
2021/07/21 03:50:20;;;;;;;22.38;12.10;;;;;;;13.16;95.13;100733.63;5015131;28;20352;-69
2021/07/21 03:52:48;;;;;;;22.55;12.57;;;;;;;13.19;95.05;100732.59;5015240;28;20112;-69
2021/07/21 03:55:16;;;;;;;19.67;11.50;;;;;;;13.20;95.18;100733.44;5015081;28;20058;-70
2021/07/21 03:57:44;;;;;;;19.33;11.82;;;;;;;13.14;95.25;100738.22;5015308;28;20108;-70
2021/07/21 04:00:13;;;;;;;23.20;11.77;;;;;;;13.08;95.29;100719.81;5014961;28;20076;-69
2021/07/21 04:02:41;;;;;;;22.58;12.52;;;;;;;13.16;94.77;100733.63;5015186;28;20050;-70
2021/07/21 04:05:14;;;;;;;22.80;12.32;;;;;;;13.22;94.57;100739.53;5015424;28;20133;-70
2021/07/21 04:07:43;;;;;;;22.27;12.80;;;;;;;13.13;96.79;100735.66;5015429;28;20119;-69
2021/07/21 04:10:11;;;;;;;19.45;11.77;;;;;;;13.16;97.54;100738.13;5016763;28;20391;-69
2021/07/21 04:12:44;;;;;;;21.70;12.27;;;;;;;13.10;96.58;100750.09;5019239;28;20419;-69
2021/07/21 04:15:12;;;;;;;24.35;12.55;;;;;;;13.10;96.68;100751.91;5018385;28;20418;-69
2021/07/21 04:17:40;;;;;;;21.55;12.05;;;;;;;13.17;95.52;100743.38;5019063;28;20432;-69
2021/07/21 04:20:09;;;;;;;19.60;11.77;;;;;;;13.21;95.32;100744.06;5019190;28;20053;-68
2021/07/21 04:22:37;;;;;;;22.88;11.85;;;;;;;13.17;95.45;100750.56;5019098;28;20107;-69
2021/07/21 04:25:06;;;;;;;21.73;12.23;;;;;;;13.15;96.15;100748.00;5019004;28;20049;-69
2021/07/21 04:27:35;;;;;;;27.13;12.88;;;;;;;13.15;96.92;100758.72;5018880;28;20454;-70
2021/07/21 04:30:03;;;;;;;18.67;10.93;;;;;;;13.18;95.63;100750.47;5018934;28;20057;-69
2021/07/21 04:32:29;;;;;;;23.83;12.13;;;;;;;13.20;96.20;100754.88;5018979;28;20103;-69
2021/07/21 04:34:57;;;;;;;18.48;11.30;;;;;;;13.21;95.18;100751.22;5018951;28;20057;-69
2021/07/21 04:37:24;;;;;;;18.67;11.55;;;;;;;13.25;96.14;100750.09;5018687;28;20058;-68
2021/07/21 04:39:54;;;;;;;22.67;11.57;;;;;;;13.26;96.22;100754.47;5018663;28;20095;-68
2021/07/21 04:42:25;;;;;;;22.30;12.17;;;;;;;13.32;96.25;100754.09;5018506;28;20104;-69
2021/07/21 04:44:52;;;;;;;24.33;12.75;;;;;;;13.37;96.07;100748.44;5018566;28;20283;-72
2021/07/21 04:47:20;;;;;;;18.98;12.18;;;;;;;13.42;94.40;100752.53;5018746;28;20099;-70
2021/07/21 04:49:47;;;;;;;18.88;12.45;;;;;;;13.47;95.97;100762.16;5019340;28;20127;-71
2021/07/21 04:52:15;;;;;;;18.77;11.50;;;;;;;13.51;96.39;100777.09;4999105;28;20103;-70
2021/07/21 04:54:43;;;;;;;21.17;12.23;;;;;;;13.52;95.41;100765.41;5017706;28;20050;-72
2021/07/21 04:57:10;;;;;;;18.92;11.18;;;;;;;13.56;94.76;100767.78;5016143;28;20432;-69
2021/07/21 04:59:38;;;;;;;22.80;13.15;;;;;;;13.66;95.13;100777.94;5011810;28;20085;-68
2021/07/21 05:02:05;;;;;;;19.13;12.10;;;;;;;13.61;96.03;100772.88;5049186;28;20046;-69
2021/07/21 05:04:35;;;;;;;21.52;11.98;;;;;;;13.68;96.48;100779.56;5017633;28;20076;-69
2021/07/21 05:07:03;;;;;;;21.50;13.00;;;;;;;13.72;95.86;100782.91;5017588;28;20047;-69
2021/07/21 05:09:29;;;;;;;23.65;12.15;;;;;;;13.81;94.84;100778.75;5016953;28;20042;-69
2021/07/21 05:11:56;;;;;;;20.33;13.05;;;;;;;13.85;95.09;100772.25;5012303;28;20050;-70
2021/07/21 05:14:23;;;;;;;24.92;13.45;;;;;;;13.91;94.79;100773.66;5017910;28;20049;-71
2021/07/21 05:16:49;;;;;;;20.98;12.45;;;;;;;13.97;98.06;100784.88;5017905;28;20108;-70
2021/07/21 05:19:16;;;;;;;20.40;12.20;;;;;;;13.97;95.56;100782.19;5012414;28;20136;-70
2021/07/21 05:21:43;;;;;;;21.95;13.60;;;;;;;14.15;92.21;100781.91;5016684;28;20324;-70
2021/07/21 05:24:09;;;;;;;19.65;12.73;;;;;;;14.21;92.76;100797.63;5017799;28;20042;-71
2021/07/21 05:26:39;;;;;;;25.73;13.93;;;;;;;14.24;92.72;100788.50;5011926;28;20137;-71
2021/07/21 05:29:05;;;;;;;25.00;12.93;;;;;;;14.34;91.13;100794.97;5017398;28;20423;-70
2021/07/21 05:31:32;;;;;;;25.13;13.18;;;;;;;14.40;90.75;100791.03;5048891;28;20410;-70
2021/07/21 05:33:59;;;;;;;21.48;12.38;;;;;;;14.40;91.28;100794.56;5018030;28;20410;-68
2021/07/21 05:36:25;;;;;;;20.90;11.98;;;;;;;14.48;91.40;100796.75;5017356;28;20042;-69
2021/07/21 05:38:52;;;;;;;25.38;14.07;;;;;;;14.51;90.12;100791.16;5012203;28;20100;-71
2021/07/21 05:41:19;;;;;;;22.42;14.30;;;;;;;14.62;89.62;100786.88;5049334;28;20092;-71
2021/07/21 05:43:45;;;;;;;25.33;12.95;;;;;;;14.77;87.14;100799.28;5017306;28;20395;-71
2021/07/21 05:46:13;;;;;;;20.08;11.90;;;;;;;14.80;86.68;100791.03;5017441;28;20057;-70
2021/07/21 05:48:40;;;;;;;19.63;11.93;;;;;;;14.90;84.57;100807.38;5017309;28;20054;-69
2021/07/21 05:51:06;;;;;;;22.42;11.10;;;;;;;14.83;85.30;100783.72;5016324;28;20104;-69
2021/07/21 05:53:33;;;;;;;21.40;12.07;;;;;;;14.94;85.68;100800.81;5016948;28;20371;-69
2021/07/21 05:56:00;;;;;;;18.33;11.57;;;;;;;15.03;83.88;100806.53;5017343;28;20317;-71
2021/07/21 05:58:26;;;;;;;23.88;11.82;;;;;;;15.11;82.65;100806.88;5017491;28;20058;-70
2021/07/21 06:00:53;;;;;;;19.45;11.25;;;;;;;15.11;85.77;100806.00;5016724;28;20485;-69
2021/07/21 06:03:21;;;;;;;18.63;11.00;;;;;;;15.10;82.70;100801.59;5016818;28;20455;-71
2021/07/21 06:05:49;;;;;;;19.30;10.50;;;;;;;15.13;82.40;100804.91;5015796;28;20050;-72
2021/07/21 06:08:15;;;;;;;21.25;11.27;;;;;;;15.07;84.92;100806.22;5016647;28;20096;-71
2021/07/21 06:10:42;;;;;;;21.20;10.60;;;;;;;15.21;82.31;100816.00;5017185;28;20200;-72
2021/07/21 06:13:11;;;;;;;18.40;11.02;;;;;;;15.22;83.01;100816.88;5016958;28;20100;-71
2021/07/21 06:15:39;;;;;;;21.42;10.65;;;;;;;15.24;83.33;100814.91;5016677;28;20065;-71
2021/07/21 06:18:08;;;;;;;20.75;10.23;;;;;;;15.26;83.93;100812.97;5016098;28;20137;-71
2021/07/21 06:20:36;;;;;;;20.65;10.15;;;;;;;15.18;83.06;100796.53;5047821;28;20061;-71
2021/07/21 06:23:03;;;;;;;21.60;11.35;;;;;;;15.40;84.22;100821.88;5015883;28;20501;-71
2021/07/21 06:25:31;;;;;;;19.33;10.65;;;;;;;15.36;85.11;100818.56;5015491;28;20120;-71
2021/07/21 06:27:57;;;;;;;19.77;10.30;;;;;;;15.41;84.45;100826.31;5048575;28;20050;-71
2021/07/21 06:30:24;;;;;;;24.80;11.13;;;;;;;15.60;81.51;100831.25;5016443;28;20120;-71
2021/07/21 06:32:51;;;;;;;17.17;10.98;;;;;;;15.59;82.20;100835.75;5046378;28;20050;-74
2021/07/21 06:35:17;;;;;;;22.48;10.93;;;;;;;15.59;81.72;100833.06;5014634;28;20050;-74
2021/07/21 06:37:44;;;;;;;19.73;10.90;;;;;;;15.72;80.47;100838.44;5016651;28;20054;-72
2021/07/21 06:40:11;;;;;;;20.05;11.25;;;;;;;15.77;81.56;100834.53;5016350;28;20096;-72
2021/07/21 06:42:39;;;;;;;18.85;10.95;;;;;;;15.86;80.45;100836.59;5016307;28;20423;-70
2021/07/21 06:45:06;;;;;;;16.88;10.63;;;;;;;15.82;80.94;100835.06;5016396;28;20108;-72
2021/07/21 06:47:32;;;;;;;19.83;11.23;;;;;;;15.97;79.37;100844.75;5016145;28;20054;-72
2021/07/21 06:49:59;;;;;;;19.08;10.70;;;;;;;16.07;79.13;100836.84;5016385;28;20432;-71
2021/07/21 06:52:26;;;;;;;17.13;10.75;;;;;;;16.07;80.80;100847.63;5047755;28;20440;-71
2021/07/21 06:54:53;;;;;;;24.38;11.07;;;;;;;16.06;82.56;100837.84;5016108;28;20124;-70
2021/07/21 06:57:20;;;;;;;20.60;10.68;;;;;;;16.06;83.72;100847.75;5015862;28;20573;-73
2021/07/21 06:59:47;;;;;;;19.58;10.73;;;;;;;16.27;79.53;100842.59;5014410;28;20302;-73
2021/07/21 07:02:13;;;;;;;16.70;10.75;;;;;;;16.31;79.77;100849.50;5014791;28;20050;-72
2021/07/21 07:04:41;;;;;;;19.58;11.10;;;;;;;16.33;80.21;100855.63;5015813;28;20053;-69
2021/07/21 07:07:08;;;;;;;21.02;11.07;;;;;;;16.47;79.13;100859.13;5016186;28;20068;-70
2021/07/21 07:09:34;;;;;;;19.42;10.50;;;;;;;16.46;82.13;100849.31;5015918;28;20501;-69
2021/07/21 07:12:01;;;;;;;20.73;11.18;;;;;;;16.63;79.07;100846.22;5015774;28;20057;-70
2021/07/21 07:14:28;;;;;;;16.48;10.00;;;;;;;16.61;80.16;100856.22;5015974;28;20046;-69
2021/07/21 07:16:54;;;;;;;19.05;10.32;;;;;;;16.64;79.79;100847.94;5016059;28;20065;-68
2021/07/21 07:19:21;;;;;;;16.25;9.85;;;;;;;16.72;79.43;100849.19;5015841;28;20458;-70
2021/07/21 07:21:48;;;;;;;18.10;10.50;;;;;;;16.72;81.34;100844.63;5015762;28;20108;-69
2021/07/21 07:24:15;;;;;;;19.63;10.52;;;;;;;16.77;80.18;100852.41;5015946;28;20103;-69
2021/07/21 07:26:41;;;;;;;24.90;10.90;;;;;;;16.79;81.41;100851.28;5015542;28;20123;-73
2021/07/21 07:29:08;;;;;;;18.40;8.90;;;;;;;16.80;83.14;100852.16;5015931;28;20053;-71
2021/07/21 07:31:38;;;;;;;18.75;10.02;;;;;;;17.00;79.15;100849.75;5015934;28;20089;-70
2021/07/21 07:34:05;;;;;;;20.20;10.40;;;;;;;17.02;80.84;100854.09;5014562;28;20050;-72
2021/07/21 07:36:32;;;;;;;17.98;9.68;;;;;;;17.23;77.49;100859.63;5047354;28;20057;-69
2021/07/21 07:38:58;;;;;;;17.10;9.90;;;;;;;17.19;78.73;100852.78;5015812;28;20107;-69
2021/07/21 07:41:25;;;;;;;17.48;9.98;;;;;;;17.15;78.91;100845.06;5015857;28;20141;-70
2021/07/21 07:43:52;;;;;;;16.38;8.52;;;;;;;17.31;76.36;100853.66;5014332;28;20050;-75
2021/07/21 07:46:24;;;;;;;18.23;9.60;;;;;;;17.31;76.64;100850.94;5047293;28;20419;-77
2021/07/21 07:48:53;;;;;;;21.05;9.57;;;;;;;17.46;75.20;100858.81;5015868;28;20050;-75
2021/07/21 07:51:20;;;;;;;25.45;9.45;;;;;;;17.52;77.25;100858.31;5015183;28;20416;-72
2021/07/21 07:53:47;;;;;;;19.08;9.02;;;;;;;17.59;75.07;100858.72;5015199;28;20080;-75
2021/07/21 07:56:14;;;;;;;18.02;9.93;;;;;;;17.77;74.09;100859.06;5015711;28;20050;-76
2021/07/21 07:58:41;;;;;;;18.00;8.10;;;;;;;17.75;71.53;100869.09;5014619;28;20124;-75
2021/07/21 08:01:07;;;;;;;17.90;9.38;;;;;;;17.87;73.46;100859.19;5015603;28;20050;-78
2021/07/21 08:03:34;;;;;;;20.60;8.80;;;;;;;18.11;70.59;100863.59;5014484;28;20050;-77
2021/07/21 08:06:02;;;;;;;24.58;10.77;;;;;;;18.08;71.70;100858.44;5015351;28;20184;-79
2021/07/21 08:08:29;;;;;;;17.83;10.32;;;;;;;17.98;73.73;100861.84;5015053;28;20392;-76
2021/07/21 08:10:56;;;;;;;20.55;11.15;;;;;;;18.12;72.16;100860.78;5015518;28;20104;-71
2021/07/21 08:13:24;;;;;;;21.77;10.73;;;;;;;18.08;75.05;100863.84;5015364;28;20058;-71
2021/07/21 08:15:51;;;;;;;24.42;10.60;;;;;;;18.07;74.74;100862.97;5015151;28;20432;-70
2021/07/21 08:18:18;;;;;;;15.55;8.98;;;;;;;18.10;75.72;100851.94;5015160;28;20073;-74
2021/07/21 08:20:45;;;;;;;18.60;9.57;;;;;;;18.31;72.77;100862.81;5015037;28;20462;-72
2021/07/21 08:23:12;;;;;;;21.83;10.13;;;;;;;18.28;73.75;100857.66;5013967;28;20100;-67
2021/07/21 08:25:38;;;;;;;20.48;9.90;;;;;;;18.39;72.65;100855.91;5015350;28;20049;-68
2021/07/21 08:28:05;;;;;;;14.98;8.85;;;;;;;18.53;70.57;100857.47;5015308;28;20058;-69
2021/07/21 08:30:32;;;;;;;21.35;9.07;;;;;;;18.50;73.52;100853.16;5015160;28;20053;-68
2021/07/21 08:33:00;;;;;;;19.25;10.20;;;;;;;18.46;72.03;100849.00;5046253;28;20563;-68
2021/07/21 08:35:30;;;;;;;25.27;10.77;;;;;;;18.57;70.94;100848.09;5013730;28;20104;-66
2021/07/21 08:38:01;;;;;;;20.02;10.20;;;;;;;18.51;74.83;100857.59;5014690;28;20054;-69
2021/07/21 08:40:30;;;;;;;15.35;9.57;;;;;;;18.68;70.65;100852.63;5014847;28;20493;-70
2021/07/21 08:43:16;;;;;;;21.60;10.25;;;;;;;18.67;72.31;100858.97;5015215;28;20140;-70
2021/07/21 08:45:43;;;;;;;21.08;11.38;;;;;;;18.68;74.67;100860.72;5015104;28;20364;-69
2021/07/21 08:48:12;;;;;;;23.27;11.23;;;;;;;18.65;72.69;100869.06;5014971;28;20096;-67
2021/07/21 08:50:43;;;;;;;20.98;9.93;;;;;;;18.76;71.45;100851.94;5014965;28;20120;-70
2021/07/21 08:53:10;;;;;;;24.65;10.85;;;;;;;19.03;68.53;100856.88;5014584;28;20344;-67
2021/07/21 08:55:37;;;;;;;18.33;10.30;;;;;;;19.05;69.79;100851.31;5013568;28;20440;-68
2021/07/21 08:58:05;;;;;;;17.80;10.00;;;;;;;19.03;69.87;100839.78;5017515;28;20189;-66
2021/07/21 09:00:33;;;;;;;16.73;8.68;;;;;;;19.19;67.23;100858.25;5018594;28;20478;-67
2021/07/21 09:03:03;;;;;;;13.98;8.05;;;;;;;19.46;64.93;100848.72;5018350;28;20057;-69
2021/07/21 09:05:30;;;;;;;16.13;7.13;;;;;;;19.47;66.10;100854.00;5018352;28;20081;-67
2021/07/21 09:07:56;;;;;;;12.57;7.50;;;;;;;19.47;61.92;100851.31;5018308;28;20352;-69
2021/07/21 09:10:23;;;;;;;13.00;7.57;;;;;;;19.35;64.45;100855.06;5018123;28;20075;-69
2021/07/21 09:12:51;;;;;;;13.40;7.50;;;;;;;19.40;63.31;100845.56;5018276;28;20054;-69
2021/07/21 09:15:20;;;;;;;13.20;7.03;;;;;;;19.55;65.81;100850.59;5017915;28;20075;-67
2021/07/21 09:18:08;;;;;;;15.80;7.17;;;;;;;19.68;65.30;100856.66;5016915;28;20053;-68
2021/07/21 09:20:41;;;;;;;12.82;6.85;;;;;;;19.77;63.15;100857.69;5017281;28;20397;-70
2021/07/21 09:23:09;;;;;;;14.35;6.60;;;;;;;19.83;62.71;100860.84;5016154;28;20355;-66
2021/07/21 09:25:41;;;;;;;16.05;6.22;;;;;;;19.97;60.96;100846.06;5017352;28;20436;-70
2021/07/21 09:28:11;;;;;;;13.05;6.55;;;;;;;20.06;62.67;100867.78;5017266;28;20054;-72
2021/07/21 09:30:43;;;;;;;13.10;6.53;;;;;;;20.28;57.88;100865.84;5016397;28;20339;-72
2021/07/21 09:33:13;;;;;;;12.07;6.15;;;;;;;20.39;56.83;100875.72;5017882;28;20058;-70
2021/07/21 09:35:58;;;;;;;13.55;5.93;;;;;;;20.26;61.82;100875.94;5016430;28;20049;-71
2021/07/21 09:38:28;;;;;;;15.57;6.18;;;;;;;20.38;56.94;100860.44;5017675;28;20440;-70
2021/07/21 09:41:00;;;;;;;10.57;6.50;;;;;;;20.51;57.86;100856.56;5016744;28;20049;-67
2021/07/21 09:43:31;;;;;;;14.15;6.82;;;;;;;20.60;57.68;100853.88;5017101;28;20050;-68
2021/07/21 09:46:12;;;;;;;7.60;5.40;;;;;;;20.65;58.62;100845.31;5017312;28;20418;-71
2021/07/21 09:48:49;;;;;;;15.15;6.57;;;;;;;20.80;55.32;100853.03;5017371;28;20061;-68
2021/07/21 09:51:34;;;;;;;11.30;5.82;;;;;;;20.90;54.87;100853.88;5017629;28;20049;-69
2021/07/21 09:54:19;;;;;;;11.90;6.20;;;;;;;20.88;54.52;100856.75;5017208;28;20103;-69
2021/07/21 09:56:50;;;;;;;12.18;5.88;;;;;;;21.00;52.70;100849.31;5016357;28;20112;-69
2021/07/21 09:59:29;;;;;;;12.77;5.50;;;;;;;20.98;55.68;100859.44;5017188;28;20502;-70
2021/07/21 10:01:56;;;;;;;11.80;6.57;;;;;;;21.08;54.77;100856.72;5017351;28;20061;-69
2021/07/21 10:04:37;;;;;;;15.45;6.60;;;;;;;21.05;57.16;100862.44;5017123;28;20093;-69
2021/07/21 10:07:26;;;;;;;13.85;6.25;;;;;;;21.20;52.66;100848.41;5017144;28;20148;-70
2021/07/21 10:09:52;;;;;;;15.98;6.28;;;;;;;21.19;53.97;100863.84;5017004;28;20050;-70
2021/07/21 10:12:20;;;;;;;16.45;5.65;;;;;;;21.28;53.80;100856.66;5017047;28;20092;-70
2021/07/21 10:14:56;;;;;;;9.20;5.90;;;;;;;21.43;56.05;100859.78;5048349;28;20481;-70
2021/07/21 10:17:23;;;;;;;10.50;5.55;;;;;;;21.30;56.76;100858.25;5016997;28;20054;-71
2021/07/21 10:19:50;;;;;;;12.15;5.43;;;;;;;21.34;55.62;100850.66;5016931;28;20057;-72
2021/07/21 10:22:16;;;;;;;11.88;6.13;;;;;;;21.44;52.88;100851.50;5016725;28;20050;-73
2021/07/21 10:24:44;;;;;;;10.02;6.28;;;;;;;21.53;54.08;100852.44;5016950;28;20054;-71
2021/07/21 10:27:11;;;;;;;10.52;6.00;;;;;;;21.56;57.00;100854.88;5016786;28;20336;-71
2021/07/21 10:29:37;;;;;;;10.70;5.65;;;;;;;21.62;55.41;100852.56;5016606;28;20415;-71
2021/07/21 10:32:05;;;;;;;7.60;5.22;;;;;;;21.78;52.13;100855.53;5015720;28;20123;-72
2021/07/21 10:34:32;;;;;;;12.60;5.88;;;;;;;21.96;51.47;100852.84;5016936;28;20128;-71
2021/07/21 10:36:58;;;;;;;15.55;5.88;;;;;;;22.06;52.71;100855.50;5015741;28;20085;-75
2021/07/21 10:39:33;;;;;;;13.25;5.65;;;;;;;22.00;51.48;100847.97;5016428;28;20316;-76
2021/07/21 10:42:04;;;;;;;7.65;5.45;;;;;;;22.18;51.22;100858.03;5015529;28;20085;-74
2021/07/21 10:44:31;;;;;;;7.70;5.22;;;;;;;22.38;47.93;100850.56;5016287;28;20436;-73
2021/07/21 10:46:59;;;;;;;11.63;5.20;;;;;;;22.29;49.40;100854.22;5015574;28;20145;-75
2021/07/21 10:49:38;;;;;;;12.40;4.85;;;;;;;22.41;51.36;100857.56;5015475;28;20061;-72
2021/07/21 10:55:04;;;;;;;10.18;5.65;;;;;;;22.72;48.89;100855.34;5016256;28;20046;-75
2021/07/21 11:00:16;;;;;;;9.07;5.00;;;;;;;22.70;45.98;100854.66;5016081;28;19925;-74
2021/07/21 11:02:45;;;;;;;8.35;5.30;;;;;;;22.68;48.50;100844.94;5016056;28;20090;-76
2021/07/21 11:05:26;;;;;;;9.80;5.18;;;;;;;22.77;50.24;100841.28;5016220;28;20124;-77
2021/07/21 11:07:55;;;;;;;9.93;5.43;;;;;;;22.99;46.59;100845.34;5016222;28;20108;-75
2021/07/21 11:10:40;;;;;;;11.65;5.03;;;;;;;22.91;45.95;100838.00;5016184;28;20053;-74
2021/07/21 11:13:09;;;;;;;11.50;5.45;;;;;;;22.95;46.65;100843.97;5016182;28;20050;-73
2021/07/21 11:15:39;;;;;;;7.53;5.57;;;;;;;22.93;47.36;100837.81;5014930;28;20057;-73
2021/07/21 11:18:21;;;;;;;7.72;5.15;;;;;;;23.05;46.63;100838.44;5014290;28;20076;-74
2021/07/21 11:20:58;;;;;;;12.30;5.53;;;;;;;23.14;49.30;100842.03;5014776;28;20054;-71
2021/07/21 11:23:49;;;;;;;9.48;5.82;;;;;;;23.38;51.58;100838.69;5015787;28;20054;-70
2021/07/21 11:26:34;;;;;;;11.18;5.53;;;;;;;23.36;49.00;100829.78;5015516;28;20409;-69
2021/07/21 11:29:40;;;;;;;9.63;5.93;;;;;;;23.39;47.13;100829.50;5015536;28;20104;-68
2021/07/21 11:32:11;;;;;;;11.85;5.38;;;;;;;23.52;47.11;100833.66;5014880;28;20073;-67
2021/07/21 11:34:40;;;;;;;12.50;5.65;;;;;;;23.52;48.67;100834.47;5015553;28;20096;-68